sensor_id;sensor_type;location;lat;lon;timestamp;P1;durP1;ratioP1;P2;durP2;ratioP2
13834;SDS011;6988;52.614;13.500;2022-09-09T00:00:21;8.73;;;7.50;;
13834;SDS011;6988;52.614;13.500;2022-09-09T00:05:17;8.10;;;7.30;;
13834;SDS011;6988;52.614;13.500;2022-09-09T00:10:19;7.10;;;6.47;;
13834;SDS011;6988;52.614;13.500;2022-09-09T00:15:20;9.20;;;7.93;;
13834;SDS011;6988;52.614;13.500;2022-09-09T00:20:19;7.70;;;7.00;;
13834;SDS011;6988;52.614;13.500;2022-09-09T00:25:23;8.70;;;7.73;;
13834;SDS011;6988;52.614;13.500;2022-09-09T00:30:26;9.43;;;8.03;;
13834;SDS011;6988;52.614;13.500;2022-09-09T00:35:26;8.67;;;7.87;;
13834;SDS011;6988;52.614;13.500;2022-09-09T00:40:24;8.53;;;7.73;;
13834;SDS011;6988;52.614;13.500;2022-09-09T00:45:30;8.70;;;7.90;;
13834;SDS011;6988;52.614;13.500;2022-09-09T00:50:45;7.17;;;6.50;;
13834;SDS011;6988;52.614;13.500;2022-09-09T00:55:52;7.67;;;6.97;;
13834;SDS011;6988;52.614;13.500;2022-09-09T01:01:02;8.50;;;7.60;;
13834;SDS011;6988;52.614;13.500;2022-09-09T01:06:11;9.33;;;8.43;;
13834;SDS011;6988;52.614;13.500;2022-09-09T01:11:07;10.80;;;9.40;;
13834;SDS011;6988;52.614;13.500;2022-09-09T01:16:12;8.53;;;7.47;;
13834;SDS011;6988;52.614;13.500;2022-09-09T01:21:08;9.90;;;8.90;;
13834;SDS011;6988;52.614;13.500;2022-09-09T01:26:16;9.60;;;8.70;;
13834;SDS011;6988;52.614;13.500;2022-09-09T01:31:15;9.47;;;8.53;;
13834;SDS011;6988;52.614;13.500;2022-09-09T01:36:13;10.07;;;8.57;;
13834;SDS011;6988;52.614;13.500;2022-09-09T01:41:17;8.90;;;8.00;;
13834;SDS011;6988;52.614;13.500;2022-09-09T01:46:15;9.03;;;8.00;;
13834;SDS011;6988;52.614;13.500;2022-09-09T01:51:11;8.17;;;7.37;;
13834;SDS011;6988;52.614;13.500;2022-09-09T01:56:07;9.20;;;7.23;;
13834;SDS011;6988;52.614;13.500;2022-09-09T02:01:23;8.13;;;7.43;;
13834;SDS011;6988;52.614;13.500;2022-09-09T02:06:33;8.83;;;8.03;;
13834;SDS011;6988;52.614;13.500;2022-09-09T02:11:41;9.53;;;8.20;;
13834;SDS011;6988;52.614;13.500;2022-09-09T02:16:47;8.87;;;8.07;;
13834;SDS011;6988;52.614;13.500;2022-09-09T02:21:51;8.43;;;7.63;;
13834;SDS011;6988;52.614;13.500;2022-09-09T02:26:50;8.60;;;7.80;;
13834;SDS011;6988;52.614;13.500;2022-09-09T02:31:47;9.00;;;8.10;;
13834;SDS011;6988;52.614;13.500;2022-09-09T02:36:47;8.37;;;7.43;;
13834;SDS011;6988;52.614;13.500;2022-09-09T02:41:44;8.50;;;7.63;;
13834;SDS011;6988;52.614;13.500;2022-09-09T02:46:47;9.83;;;8.43;;
13834;SDS011;6988;52.614;13.500;2022-09-09T02:52:09;8.83;;;7.97;;
13834;SDS011;6988;52.614;13.500;2022-09-09T02:57:10;8.60;;;7.80;;
13834;SDS011;6988;52.614;13.500;2022-09-09T03:02:10;8.50;;;7.70;;
13834;SDS011;6988;52.614;13.500;2022-09-09T03:07:05;8.10;;;7.30;;
13834;SDS011;6988;52.614;13.500;2022-09-09T03:11:57;8.57;;;7.47;;
13834;SDS011;6988;52.614;13.500;2022-09-09T03:16:51;10.63;;;8.37;;
13834;SDS011;6988;52.614;13.500;2022-09-09T03:21:46;8.03;;;7.13;;
13834;SDS011;6988;52.614;13.500;2022-09-09T03:26:57;8.37;;;7.30;;
13834;SDS011;6988;52.614;13.500;2022-09-09T03:31:49;10.53;;;8.87;;
13834;SDS011;6988;52.614;13.500;2022-09-09T03:36:42;9.20;;;8.03;;
13834;SDS011;6988;52.614;13.500;2022-09-09T03:41:35;9.30;;;8.40;;
13834;SDS011;6988;52.614;13.500;2022-09-09T03:46:28;10.70;;;9.33;;
13834;SDS011;6988;52.614;13.500;2022-09-09T03:51:20;8.80;;;7.90;;
13834;SDS011;6988;52.614;13.500;2022-09-09T03:56:12;8.30;;;7.50;;
13834;SDS011;6988;52.614;13.500;2022-09-09T04:01:07;7.83;;;6.90;;
13834;SDS011;6988;52.614;13.500;2022-09-09T04:06:05;7.63;;;6.83;;
13834;SDS011;6988;52.614;13.500;2022-09-09T04:10:59;6.80;;;5.97;;
13834;SDS011;6988;52.614;13.500;2022-09-09T04:15:57;8.93;;;8.00;;
13834;SDS011;6988;52.614;13.500;2022-09-09T04:20:51;10.67;;;7.07;;
13834;SDS011;6988;52.614;13.500;2022-09-09T04:25:48;10.43;;;6.67;;
13834;SDS011;6988;52.614;13.500;2022-09-09T04:30:43;7.97;;;6.73;;
13834;SDS011;6988;52.614;13.500;2022-09-09T04:35:38;6.37;;;5.77;;
13834;SDS011;6988;52.614;13.500;2022-09-09T04:40:32;7.13;;;6.43;;
13834;SDS011;6988;52.614;13.500;2022-09-09T04:45:24;8.40;;;7.60;;
13834;SDS011;6988;52.614;13.500;2022-09-09T04:50:17;7.63;;;6.83;;
13834;SDS011;6988;52.614;13.500;2022-09-09T04:55:10;9.07;;;8.07;;
13834;SDS011;6988;52.614;13.500;2022-09-09T05:00:08;8.50;;;7.70;;
13834;SDS011;6988;52.614;13.500;2022-09-09T05:05:04;10.13;;;9.07;;
13834;SDS011;6988;52.614;13.500;2022-09-09T05:09:57;13.13;;;9.27;;
13834;SDS011;6988;52.614;13.500;2022-09-09T05:14:49;10.53;;;9.43;;
13834;SDS011;6988;52.614;13.500;2022-09-09T05:19:43;12.40;;;10.37;;
13834;SDS011;6988;52.614;13.500;2022-09-09T05:24:35;11.67;;;10.27;;
13834;SDS011;6988;52.614;13.500;2022-09-09T05:29:28;11.33;;;10.20;;
13834;SDS011;6988;52.614;13.500;2022-09-09T05:34:20;11.23;;;9.70;;
13834;SDS011;6988;52.614;13.500;2022-09-09T05:39:15;12.50;;;9.50;;
13834;SDS011;6988;52.614;13.500;2022-09-09T05:44:07;11.33;;;9.93;;
13834;SDS011;6988;52.614;13.500;2022-09-09T05:49:02;12.83;;;9.70;;
13834;SDS011;6988;52.614;13.500;2022-09-09T05:53:56;11.10;;;9.83;;
13834;SDS011;6988;52.614;13.500;2022-09-09T05:58:52;11.20;;;8.73;;
13834;SDS011;6988;52.614;13.500;2022-09-09T06:03:47;10.90;;;9.30;;
13834;SDS011;6988;52.614;13.500;2022-09-09T06:08:41;10.37;;;9.27;;
13834;SDS011;6988;52.614;13.500;2022-09-09T06:13:37;10.07;;;9.00;;
13834;SDS011;6988;52.614;13.500;2022-09-09T06:18:32;9.20;;;8.30;;
13834;SDS011;6988;52.614;13.500;2022-09-09T06:23:24;11.27;;;8.63;;
13834;SDS011;6988;52.614;13.500;2022-09-09T06:28:17;10.13;;;8.27;;
13834;SDS011;6988;52.614;13.500;2022-09-09T06:33:09;9.37;;;7.47;;
13834;SDS011;6988;52.614;13.500;2022-09-09T06:38:03;7.37;;;6.27;;
13834;SDS011;6988;52.614;13.500;2022-09-09T06:42:58;10.43;;;6.20;;
13834;SDS011;6988;52.614;13.500;2022-09-09T06:47:59;7.20;;;5.43;;
13834;SDS011;6988;52.614;13.500;2022-09-09T06:52:53;6.57;;;5.73;;
13834;SDS011;6988;52.614;13.500;2022-09-09T06:57:46;6.67;;;4.90;;
13834;SDS011;6988;52.614;13.500;2022-09-09T07:02:44;9.20;;;4.50;;
13834;SDS011;6988;52.614;13.500;2022-09-09T07:07:37;7.40;;;4.30;;
13834;SDS011;6988;52.614;13.500;2022-09-09T07:12:30;6.83;;;4.97;;
13834;SDS011;6988;52.614;13.500;2022-09-09T07:17:25;5.50;;;3.90;;
13834;SDS011;6988;52.614;13.500;2022-09-09T07:22:19;7.10;;;4.00;;
13834;SDS011;6988;52.614;13.500;2022-09-09T07:27:11;4.60;;;3.63;;
13834;SDS011;6988;52.614;13.500;2022-09-09T07:32:04;6.23;;;3.40;;
13834;SDS011;6988;52.614;13.500;2022-09-09T07:37:01;4.60;;;3.20;;
13834;SDS011;6988;52.614;13.500;2022-09-09T07:41:55;6.57;;;2.50;;
13834;SDS011;6988;52.614;13.500;2022-09-09T07:46:48;6.00;;;2.67;;
13834;SDS011;6988;52.614;13.500;2022-09-09T07:51:45;4.20;;;2.70;;
13834;SDS011;6988;52.614;13.500;2022-09-09T07:56:41;5.63;;;2.80;;
13834;SDS011;6988;52.614;13.500;2022-09-09T08:01:35;4.17;;;2.60;;
13834;SDS011;6988;52.614;13.500;2022-09-09T08:06:32;4.67;;;2.63;;
13834;SDS011;6988;52.614;13.500;2022-09-09T08:11:32;5.73;;;2.50;;
13834;SDS011;6988;52.614;13.500;2022-09-09T08:16:28;5.13;;;2.20;;
13834;SDS011;6988;52.614;13.500;2022-09-09T08:21:25;6.60;;;2.50;;
13834;SDS011;6988;52.614;13.500;2022-09-09T08:26:22;3.30;;;1.93;;
13834;SDS011;6988;52.614;13.500;2022-09-09T08:31:17;3.00;;;1.77;;
13834;SDS011;6988;52.614;13.500;2022-09-09T08:36:14;5.43;;;1.70;;
13834;SDS011;6988;52.614;13.500;2022-09-09T08:41:19;6.97;;;1.93;;
13834;SDS011;6988;52.614;13.500;2022-09-09T08:46:54;5.60;;;2.27;;
13834;SDS011;6988;52.614;13.500;2022-09-09T08:51:58;3.90;;;2.00;;
13834;SDS011;6988;52.614;13.500;2022-09-09T08:56:50;4.45;;;1.70;;
13834;SDS011;6988;52.614;13.500;2022-09-09T09:01:43;4.95;;;1.98;;
13834;SDS011;6988;52.614;13.500;2022-09-09T09:06:54;4.80;;;1.52;;
13834;SDS011;6988;52.614;13.500;2022-09-09T09:12:08;5.30;;;1.70;;
13834;SDS011;6988;52.614;13.500;2022-09-09T09:17:10;4.67;;;1.90;;
13834;SDS011;6988;52.614;13.500;2022-09-09T09:22:11;5.33;;;1.80;;
13834;SDS011;6988;52.614;13.500;2022-09-09T09:27:12;2.97;;;1.83;;
13834;SDS011;6988;52.614;13.500;2022-09-09T09:32:14;3.17;;;1.73;;
13834;SDS011;6988;52.614;13.500;2022-09-09T09:37:15;7.97;;;2.50;;
13834;SDS011;6988;52.614;13.500;2022-09-09T09:42:18;6.50;;;2.03;;
13834;SDS011;6988;52.614;13.500;2022-09-09T09:47:13;4.38;;;1.63;;
13834;SDS011;6988;52.614;13.500;2022-09-09T09:52:15;3.47;;;1.90;;
13834;SDS011;6988;52.614;13.500;2022-09-09T09:57:14;3.97;;;1.65;;
13834;SDS011;6988;52.614;13.500;2022-09-09T10:02:13;4.68;;;1.88;;
13834;SDS011;6988;52.614;13.500;2022-09-09T10:07:11;3.58;;;1.60;;
13834;SDS011;6988;52.614;13.500;2022-09-09T10:12:06;3.28;;;1.60;;
13834;SDS011;6988;52.614;13.500;2022-09-09T10:17:14;6.95;;;2.05;;
13834;SDS011;6988;52.614;13.500;2022-09-09T10:22:20;2.90;;;1.30;;
13834;SDS011;6988;52.614;13.500;2022-09-09T10:27:21;4.07;;;1.20;;
13834;SDS011;6988;52.614;13.500;2022-09-09T10:32:29;9.88;;;1.48;;
13834;SDS011;6988;52.614;13.500;2022-09-09T10:37:37;2.58;;;1.23;;
13834;SDS011;6988;52.614;13.500;2022-09-09T10:42:49;2.55;;;1.20;;
13834;SDS011;6988;52.614;13.500;2022-09-09T10:53:03;3.08;;;1.10;;
13834;SDS011;6988;52.614;13.500;2022-09-09T10:58:10;3.90;;;1.13;;
13834;SDS011;6988;52.614;13.500;2022-09-09T11:03:14;2.08;;;1.30;;
13834;SDS011;6988;52.614;13.500;2022-09-09T11:08:13;3.78;;;1.20;;
13834;SDS011;6988;52.614;13.500;2022-09-09T11:13:11;4.90;;;1.30;;
13834;SDS011;6988;52.614;13.500;2022-09-09T11:18:13;4.50;;;1.08;;
13834;SDS011;6988;52.614;13.500;2022-09-09T11:23:11;4.35;;;1.20;;
13834;SDS011;6988;52.614;13.500;2022-09-09T11:28:21;5.00;;;1.48;;
13834;SDS011;6988;52.614;13.500;2022-09-09T11:33:34;2.15;;;1.35;;
13834;SDS011;6988;52.614;13.500;2022-09-09T11:38:55;3.25;;;1.50;;
13834;SDS011;6988;52.614;13.500;2022-09-09T11:44:08;2.60;;;1.10;;
13834;SDS011;6988;52.614;13.500;2022-09-09T11:49:04;3.47;;;1.30;;
13834;SDS011;6988;52.614;13.500;2022-09-09T11:54:25;4.70;;;1.50;;
13834;SDS011;6988;52.614;13.500;2022-09-09T11:59:22;3.35;;;1.23;;
13834;SDS011;6988;52.614;13.500;2022-09-09T12:04:30;4.00;;;1.52;;
13834;SDS011;6988;52.614;13.500;2022-09-09T12:09:29;2.13;;;0.90;;
13834;SDS011;6988;52.614;13.500;2022-09-09T12:14:43;2.30;;;0.90;;
13834;SDS011;6988;52.614;13.500;2022-09-09T12:19:47;4.43;;;1.05;;
13834;SDS011;6988;52.614;13.500;2022-09-09T12:24:40;1.88;;;1.00;;
13834;SDS011;6988;52.614;13.500;2022-09-09T12:29:43;2.50;;;1.00;;
13834;SDS011;6988;52.614;13.500;2022-09-09T12:34:46;1.88;;;1.00;;
13834;SDS011;6988;52.614;13.500;2022-09-09T12:39:44;4.50;;;1.30;;
13834;SDS011;6988;52.614;13.500;2022-09-09T12:44:51;4.53;;;1.27;;
13834;SDS011;6988;52.614;13.500;2022-09-09T12:49:45;2.65;;;0.90;;
13834;SDS011;6988;52.614;13.500;2022-09-09T12:54:42;3.05;;;0.90;;
13834;SDS011;6988;52.614;13.500;2022-09-09T12:59:38;2.17;;;0.95;;
13834;SDS011;6988;52.614;13.500;2022-09-09T13:04:36;4.00;;;0.98;;
13834;SDS011;6988;52.614;13.500;2022-09-09T13:09:28;2.58;;;0.90;;
13834;SDS011;6988;52.614;13.500;2022-09-09T13:14:22;2.10;;;0.90;;
13834;SDS011;6988;52.614;13.500;2022-09-09T13:19:22;1.92;;;0.80;;
13834;SDS011;6988;52.614;13.500;2022-09-09T13:24:24;1.48;;;0.73;;
13834;SDS011;6988;52.614;13.500;2022-09-09T13:29:21;3.13;;;0.80;;
13834;SDS011;6988;52.614;13.500;2022-09-09T13:34:13;1.67;;;0.82;;
13834;SDS011;6988;52.614;13.500;2022-09-09T13:39:18;5.75;;;1.20;;
13834;SDS011;6988;52.614;13.500;2022-09-09T13:44:17;3.13;;;0.90;;
13834;SDS011;6988;52.614;13.500;2022-09-09T13:49:19;1.40;;;0.60;;
13834;SDS011;6988;52.614;13.500;2022-09-09T13:54:14;2.00;;;0.70;;
13834;SDS011;6988;52.614;13.500;2022-09-09T13:59:09;1.65;;;0.90;;
13834;SDS011;6988;52.614;13.500;2022-09-09T14:04:05;1.63;;;0.70;;
13834;SDS011;6988;52.614;13.500;2022-09-09T14:08:58;2.38;;;0.80;;
13834;SDS011;6988;52.614;13.500;2022-09-09T14:13:50;4.93;;;1.00;;
13834;SDS011;6988;52.614;13.500;2022-09-09T14:18:42;2.28;;;0.80;;
13834;SDS011;6988;52.614;13.500;2022-09-09T14:23:35;2.25;;;0.77;;
13834;SDS011;6988;52.614;13.500;2022-09-09T14:28:28;3.60;;;1.10;;
13834;SDS011;6988;52.614;13.500;2022-09-09T14:33:19;1.58;;;0.70;;
13834;SDS011;6988;52.614;13.500;2022-09-09T14:38:11;2.83;;;0.88;;
13834;SDS011;6988;52.614;13.500;2022-09-09T14:43:05;2.42;;;0.80;;
13834;SDS011;6988;52.614;13.500;2022-09-09T14:47:57;2.55;;;0.90;;
13834;SDS011;6988;52.614;13.500;2022-09-09T14:52:49;4.25;;;0.80;;
13834;SDS011;6988;52.614;13.500;2022-09-09T14:57:41;2.88;;;0.90;;
13834;SDS011;6988;52.614;13.500;2022-09-09T15:02:37;3.75;;;0.90;;
13834;SDS011;6988;52.614;13.500;2022-09-09T15:07:29;2.47;;;0.70;;
13834;SDS011;6988;52.614;13.500;2022-09-09T15:12:21;2.90;;;0.90;;
13834;SDS011;6988;52.614;13.500;2022-09-09T15:17:13;3.05;;;0.73;;
13834;SDS011;6988;52.614;13.500;2022-09-09T15:22:06;1.58;;;0.63;;
13834;SDS011;6988;52.614;13.500;2022-09-09T15:26:59;2.55;;;0.77;;
13834;SDS011;6988;52.614;13.500;2022-09-09T15:31:53;3.42;;;2.80;;
13834;SDS011;6988;52.614;13.500;2022-09-09T15:36:45;4.47;;;1.45;;
13834;SDS011;6988;52.614;13.500;2022-09-09T15:41:39;3.90;;;1.00;;
13834;SDS011;6988;52.614;13.500;2022-09-09T15:46:32;2.08;;;1.00;;
13834;SDS011;6988;52.614;13.500;2022-09-09T15:51:27;2.28;;;0.80;;
13834;SDS011;6988;52.614;13.500;2022-09-09T15:56:19;2.03;;;0.85;;
13834;SDS011;6988;52.614;13.500;2022-09-09T16:01:12;2.65;;;0.90;;
13834;SDS011;6988;52.614;13.500;2022-09-09T16:06:04;1.85;;;0.77;;
13834;SDS011;6988;52.614;13.500;2022-09-09T16:10:56;4.55;;;1.60;;
13834;SDS011;6988;52.614;13.500;2022-09-09T16:15:55;2.67;;;0.90;;
13834;SDS011;6988;52.614;13.500;2022-09-09T16:20:54;1.30;;;0.70;;
13834;SDS011;6988;52.614;13.500;2022-09-09T16:25:52;3.90;;;1.10;;
13834;SDS011;6988;52.614;13.500;2022-09-09T16:30:45;1.85;;;0.80;;
13834;SDS011;6988;52.614;13.500;2022-09-09T16:35:37;2.58;;;1.00;;
13834;SDS011;6988;52.614;13.500;2022-09-09T16:40:31;1.65;;;0.90;;
13834;SDS011;6988;52.614;13.500;2022-09-09T16:45:26;2.17;;;1.00;;
13834;SDS011;6988;52.614;13.500;2022-09-09T16:50:18;4.20;;;1.20;;
13834;SDS011;6988;52.614;13.500;2022-09-09T16:55:10;3.28;;;1.52;;
13834;SDS011;6988;52.614;13.500;2022-09-09T17:00:03;4.18;;;2.15;;
13834;SDS011;6988;52.614;13.500;2022-09-09T17:04:57;5.18;;;3.47;;
13834;SDS011;6988;52.614;13.500;2022-09-09T17:09:49;3.65;;;2.20;;
13834;SDS011;6988;52.614;13.500;2022-09-09T17:14:41;3.17;;;1.00;;
13834;SDS011;6988;52.614;13.500;2022-09-09T17:19:36;3.80;;;1.20;;
13834;SDS011;6988;52.614;13.500;2022-09-09T17:24:28;2.65;;;1.10;;
13834;SDS011;6988;52.614;13.500;2022-09-09T17:29:20;3.33;;;1.20;;
13834;SDS011;6988;52.614;13.500;2022-09-09T17:34:12;4.43;;;1.27;;
13834;SDS011;6988;52.614;13.500;2022-09-09T17:39:05;4.60;;;1.20;;
13834;SDS011;6988;52.614;13.500;2022-09-09T17:43:58;2.57;;;1.03;;
13834;SDS011;6988;52.614;13.500;2022-09-09T17:48:51;2.80;;;1.40;;
13834;SDS011;6988;52.614;13.500;2022-09-09T17:53:47;3.00;;;1.30;;
13834;SDS011;6988;52.614;13.500;2022-09-09T17:58:42;2.87;;;1.43;;
13834;SDS011;6988;52.614;13.500;2022-09-09T18:03:35;1.80;;;0.80;;
13834;SDS011;6988;52.614;13.500;2022-09-09T18:08:29;3.13;;;0.90;;
13834;SDS011;6988;52.614;13.500;2022-09-09T18:13:21;2.30;;;0.90;;
13834;SDS011;6988;52.614;13.500;2022-09-09T18:18:14;1.10;;;0.90;;
13834;SDS011;6988;52.614;13.500;2022-09-09T18:23:06;3.57;;;1.20;;
13834;SDS011;6988;52.614;13.500;2022-09-09T18:27:58;2.70;;;1.10;;
13834;SDS011;6988;52.614;13.500;2022-09-09T18:32:49;3.53;;;1.23;;
13834;SDS011;6988;52.614;13.500;2022-09-09T18:37:43;2.77;;;1.20;;
13834;SDS011;6988;52.614;13.500;2022-09-09T18:42:37;3.17;;;1.40;;
13834;SDS011;6988;52.614;13.500;2022-09-09T18:47:28;2.80;;;1.10;;
13834;SDS011;6988;52.614;13.500;2022-09-09T18:52:20;2.60;;;1.20;;
13834;SDS011;6988;52.614;13.500;2022-09-09T18:57:13;2.57;;;1.30;;
13834;SDS011;6988;52.614;13.500;2022-09-09T19:02:05;2.27;;;1.20;;
13834;SDS011;6988;52.614;13.500;2022-09-09T19:06:57;1.87;;;1.00;;
13834;SDS011;6988;52.614;13.500;2022-09-09T19:11:49;1.93;;;1.20;;
13834;SDS011;6988;52.614;13.500;2022-09-09T19:16:43;2.80;;;1.20;;
13834;SDS011;6988;52.614;13.500;2022-09-09T19:21:38;2.77;;;1.30;;
13834;SDS011;6988;52.614;13.500;2022-09-09T19:26:33;4.90;;;1.80;;
13834;SDS011;6988;52.614;13.500;2022-09-09T19:31:29;3.03;;;1.57;;
13834;SDS011;6988;52.614;13.500;2022-09-09T19:36:23;2.67;;;1.20;;
13834;SDS011;6988;52.614;13.500;2022-09-09T19:41:18;4.40;;;1.50;;
13834;SDS011;6988;52.614;13.500;2022-09-09T19:46:13;2.73;;;1.10;;
13834;SDS011;6988;52.614;13.500;2022-09-09T19:51:07;2.60;;;1.00;;
13834;SDS011;6988;52.614;13.500;2022-09-09T19:56:03;2.90;;;1.60;;
13834;SDS011;6988;52.614;13.500;2022-09-09T20:01:03;2.40;;;1.27;;
13834;SDS011;6988;52.614;13.500;2022-09-09T20:05:57;2.80;;;1.20;;
13834;SDS011;6988;52.614;13.500;2022-09-09T20:10:49;3.07;;;1.30;;
13834;SDS011;6988;52.614;13.500;2022-09-09T20:15:43;1.93;;;1.40;;
13834;SDS011;6988;52.614;13.500;2022-09-09T20:20:38;3.87;;;1.00;;
13834;SDS011;6988;52.614;13.500;2022-09-09T20:25:34;2.90;;;1.10;;
13834;SDS011;6988;52.614;13.500;2022-09-09T20:30:26;3.90;;;1.10;;
13834;SDS011;6988;52.614;13.500;2022-09-09T20:35:19;3.10;;;1.00;;
13834;SDS011;6988;52.614;13.500;2022-09-09T20:40:10;3.23;;;1.00;;
13834;SDS011;6988;52.614;13.500;2022-09-09T20:45:03;1.20;;;0.80;;
13834;SDS011;6988;52.614;13.500;2022-09-09T20:49:56;2.50;;;1.03;;
13834;SDS011;6988;52.614;13.500;2022-09-09T20:54:50;2.40;;;0.97;;
13834;SDS011;6988;52.614;13.500;2022-09-09T20:59:43;4.43;;;1.10;;
13834;SDS011;6988;52.614;13.500;2022-09-09T21:04:36;3.27;;;1.20;;
13834;SDS011;6988;52.614;13.500;2022-09-09T21:09:28;2.67;;;0.90;;
13834;SDS011;6988;52.614;13.500;2022-09-09T21:14:22;5.47;;;1.10;;
13834;SDS011;6988;52.614;13.500;2022-09-09T21:19:16;3.33;;;0.90;;
13834;SDS011;6988;52.614;13.500;2022-09-09T21:24:08;1.40;;;0.80;;
13834;SDS011;6988;52.614;13.500;2022-09-09T21:28:59;2.23;;;1.07;;
13834;SDS011;6988;52.614;13.500;2022-09-09T21:33:52;3.30;;;1.17;;
13834;SDS011;6988;52.614;13.500;2022-09-09T21:38:44;1.80;;;1.03;;
13834;SDS011;6988;52.614;13.500;2022-09-09T21:43:36;3.17;;;1.20;;
13834;SDS011;6988;52.614;13.500;2022-09-09T22:04:32;2.23;;;1.10;;
13834;SDS011;6988;52.614;13.500;2022-09-09T22:09:26;2.60;;;1.37;;
13834;SDS011;6988;52.614;13.500;2022-09-09T22:14:18;3.63;;;1.30;;
13834;SDS011;6988;52.614;13.500;2022-09-09T22:19:09;5.37;;;1.30;;
13834;SDS011;6988;52.614;13.500;2022-09-09T22:24:03;2.70;;;1.13;;
13834;SDS011;6988;52.614;13.500;2022-09-09T22:28:56;3.93;;;1.30;;
13834;SDS011;6988;52.614;13.500;2022-09-09T22:33:48;3.13;;;1.43;;
13834;SDS011;6988;52.614;13.500;2022-09-09T22:38:40;3.63;;;1.17;;
13834;SDS011;6988;52.614;13.500;2022-09-09T22:43:33;2.07;;;1.10;;
13834;SDS011;6988;52.614;13.500;2022-09-09T22:48:25;2.33;;;1.10;;
13834;SDS011;6988;52.614;13.500;2022-09-09T22:53:17;2.93;;;1.10;;
13834;SDS011;6988;52.614;13.500;2022-09-09T22:58:09;2.10;;;1.00;;
13834;SDS011;6988;52.614;13.500;2022-09-09T23:03:02;2.30;;;1.30;;
13834;SDS011;6988;52.614;13.500;2022-09-09T23:07:55;2.50;;;1.00;;
13834;SDS011;6988;52.614;13.500;2022-09-09T23:12:47;1.53;;;1.10;;
13834;SDS011;6988;52.614;13.500;2022-09-09T23:17:39;3.07;;;1.10;;
13834;SDS011;6988;52.614;13.500;2022-09-09T23:22:32;2.37;;;1.00;;
13834;SDS011;6988;52.614;13.500;2022-09-09T23:27:25;2.43;;;1.13;;
13834;SDS011;6988;52.614;13.500;2022-09-09T23:32:18;3.93;;;1.10;;
13834;SDS011;6988;52.614;13.500;2022-09-09T23:37:11;2.27;;;1.20;;
13834;SDS011;6988;52.614;13.500;2022-09-09T23:42:04;3.17;;;1.33;;
13834;SDS011;6988;52.614;13.500;2022-09-09T23:46:56;1.60;;;1.23;;
13834;SDS011;6988;52.614;13.500;2022-09-09T23:51:48;1.87;;;1.30;;
13834;SDS011;6988;52.614;13.500;2022-09-09T23:56:40;4.23;;;1.40;;
